< < Back
Terminal Aerodrome Forecast


Current Version              Previous Versions:   1  2  3  4  5  6  7  8  9  

Terminal Aerodrome Forecast

285
FTUS44 KHUN 252320
TAFHSV
TAF
KHSV 252320Z 2600/2624 14007KT P6SM BKN100 OVC250
     FM261000 13008KT P6SM BKN025
     FM261500 17012G21KT P6SM VCTS BKN020CB OVC040
     FM261900 18012KT P6SM VCSH BKN030 OVC050=



Latest METAR

383
SAUS80 KWBC 260100
MTRHSV
METAR KHSV 260053Z 12007KT 10SM FEW150 OVC250 23/21 A3010 RMK AO2 SLP187
T02280206


USA.gov is the U.S. government's official web portal to all federal, state and local government web resources and services.